createdAt,value
2017-09-26T00:02:05.576Z,76.10
2017-09-26T00:04:32.276Z,76.10
2017-09-26T00:06:59.314Z,76.20
2017-09-26T00:09:25.970Z,76.20
2017-09-26T00:11:52.642Z,76.20
2017-09-26T00:14:19.285Z,76.10
2017-09-26T00:16:45.953Z,76.10
2017-09-26T00:19:12.597Z,76.10
2017-09-26T00:21:39.275Z,76.10
2017-09-26T00:24:05.963Z,76.10
2017-09-26T00:26:32.635Z,76.20
2017-09-26T00:28:59.691Z,76.10
2017-09-26T00:31:26.384Z,76.10
2017-09-26T00:33:53.035Z,76.10
2017-09-26T00:36:19.706Z,76.10
2017-09-26T00:38:47.219Z,76.10
2017-09-26T00:41:13.892Z,76.10
2017-09-26T00:43:40.579Z,76.10
2017-09-26T00:46:07.620Z,76.10
2017-09-26T00:51:03.162Z,76.10
2017-09-26T00:53:29.853Z,76.10
2017-09-26T00:55:56.893Z,76.10
2017-09-26T00:58:23.545Z,76.10
2017-09-26T01:00:50.226Z,76.10
2017-09-26T01:03:33.317Z,76.10
2017-09-26T01:06:14.865Z,76.10
2017-09-26T01:08:41.918Z,76.10
2017-09-26T01:11:08.585Z,76.10
2017-09-26T01:13:35.237Z,76.10
2017-09-26T01:16:02.459Z,76.00
2017-09-26T01:18:29.102Z,76.00
2017-09-26T01:20:56.018Z,76.00
2017-09-26T01:23:23.066Z,76.00
2017-09-26T01:25:50.137Z,76.00
2017-09-26T01:28:16.781Z,76.00
2017-09-26T01:30:43.437Z,76.00
2017-09-26T01:33:10.119Z,76.00
2017-09-26T01:35:36.763Z,76.00
2017-09-26T01:38:03.438Z,76.00
2017-09-26T01:40:30.081Z,76.00
2017-09-26T01:42:57.513Z,76.00
2017-09-26T01:45:24.162Z,76.00
2017-09-26T01:47:50.850Z,75.80
2017-09-26T01:50:17.521Z,75.90
2017-09-26T01:52:44.214Z,75.90
2017-09-26T01:55:10.862Z,75.90
2017-09-26T01:57:39.582Z,76.00
2017-09-26T02:00:06.254Z,76.00
2017-09-26T02:02:33.286Z,75.90
2017-09-26T02:04:59.961Z,75.90
2017-09-26T02:07:26.602Z,75.90
2017-09-26T02:09:53.276Z,75.90
2017-09-26T02:12:19.922Z,75.90
2017-09-26T02:14:46.623Z,75.90
2017-09-26T02:17:13.269Z,75.70
2017-09-26T02:19:39.905Z,75.80
2017-09-26T02:22:06.575Z,75.80
2017-09-26T02:24:33.217Z,75.90
2017-09-26T02:26:59.881Z,75.90
2017-09-26T02:29:26.530Z,75.90
2017-09-26T02:31:53.200Z,75.80
2017-09-26T02:34:19.845Z,75.80
2017-09-26T02:36:46.513Z,75.90
2017-09-26T02:39:13.162Z,75.80
2017-09-26T02:41:39.863Z,75.80
2017-09-26T02:44:06.510Z,75.80
2017-09-26T02:49:22.042Z,75.70
2017-09-26T02:51:49.085Z,75.80
2017-09-26T02:54:16.138Z,75.80
2017-09-26T02:56:42.810Z,75.80
2017-09-26T02:59:09.484Z,75.80
2017-09-26T03:01:36.120Z,75.80
2017-09-26T03:04:02.793Z,75.80
2017-09-26T03:06:29.837Z,75.80
2017-09-26T03:08:56.518Z,75.80
2017-09-26T03:11:23.898Z,75.80
2017-09-26T03:13:50.538Z,75.80
2017-09-26T03:16:17.599Z,75.80
2017-09-26T03:18:44.281Z,75.80
2017-09-26T03:21:11.334Z,75.80
2017-09-26T03:23:37.969Z,75.70
2017-09-26T03:26:04.636Z,75.80
2017-09-26T03:28:31.273Z,75.80
2017-09-26T03:30:58.323Z,75.80
2017-09-26T03:33:25.003Z,75.80
2017-09-26T03:35:51.650Z,75.70
2017-09-26T03:38:18.315Z,75.80
2017-09-26T03:40:44.954Z,75.80
2017-09-26T03:43:11.625Z,75.80
2017-09-26T03:45:38.266Z,75.80
2017-09-26T03:48:04.914Z,75.60
2017-09-26T03:50:31.577Z,75.70
2017-09-26T03:52:58.925Z,75.70
2017-09-26T03:55:25.995Z,75.70
2017-09-26T03:57:52.645Z,75.70
2017-09-26T04:00:19.337Z,75.70
2017-09-26T04:02:45.982Z,75.70
2017-09-26T04:05:12.622Z,75.70
2017-09-26T04:07:39.294Z,75.70
2017-09-26T04:10:05.930Z,75.70
2017-09-26T04:12:32.613Z,75.70
2017-09-26T04:14:59.257Z,75.80
2017-09-26T04:17:25.918Z,75.50
2017-09-26T04:19:52.597Z,75.60
2017-09-26T04:22:19.252Z,75.70
2017-09-26T04:24:45.913Z,75.70
2017-09-26T04:27:12.550Z,75.70
2017-09-26T04:29:39.213Z,75.70
2017-09-26T04:32:05.853Z,75.70
2017-09-26T04:34:33.341Z,75.70
2017-09-26T04:36:59.990Z,75.70
2017-09-26T04:39:26.626Z,75.70
2017-09-26T04:41:54.077Z,75.70
2017-09-26T04:44:21.110Z,75.70
2017-09-26T04:49:36.270Z,75.60
2017-09-26T04:52:03.337Z,75.70
2017-09-26T04:54:29.994Z,75.60
2017-09-26T04:56:56.661Z,75.70
2017-09-26T04:59:23.307Z,75.70
2017-09-26T05:01:50.378Z,75.70
2017-09-26T05:04:17.028Z,75.60
2017-09-26T05:06:44.097Z,75.60
2017-09-26T05:09:10.790Z,75.70
2017-09-26T05:11:37.837Z,75.70
2017-09-26T05:14:04.525Z,75.60
2017-09-26T05:19:21.290Z,75.50
2017-09-26T05:21:48.339Z,75.60
2017-09-26T05:24:15.417Z,75.60
2017-09-26T05:26:42.453Z,75.60
2017-09-26T05:29:09.490Z,75.60
2017-09-26T05:31:36.556Z,75.60
2017-09-26T05:34:03.201Z,75.60
2017-09-26T05:36:29.874Z,75.60
2017-09-26T05:38:56.522Z,75.60
2017-09-26T05:41:23.235Z,75.60
2017-09-26T05:43:49.890Z,75.60
2017-09-26T05:49:04.932Z,75.50
2017-09-26T05:51:31.593Z,75.60
2017-09-26T05:53:58.258Z,75.60
2017-09-26T05:56:24.898Z,75.60
2017-09-26T05:58:51.586Z,75.60
2017-09-26T06:01:18.235Z,75.60
2017-09-26T06:03:45.293Z,75.60
2017-09-26T06:06:11.938Z,75.60
2017-09-26T06:08:38.585Z,75.60
2017-09-26T06:11:05.249Z,75.60
2017-09-26T06:13:31.897Z,75.60
2017-09-26T06:15:58.969Z,75.60
2017-09-26T06:18:25.613Z,75.50
2017-09-26T06:20:52.310Z,75.60
2017-09-26T06:23:18.959Z,75.60
2017-09-26T06:25:45.602Z,75.60
2017-09-26T06:28:12.275Z,75.60
2017-09-26T06:30:38.917Z,75.60
2017-09-26T06:33:05.625Z,75.60
2017-09-26T06:35:32.270Z,75.60
2017-09-26T06:37:59.557Z,75.60
2017-09-26T06:40:26.206Z,75.60
2017-09-26T06:42:53.282Z,75.60
2017-09-26T06:45:19.929Z,75.70
2017-09-26T06:47:46.994Z,75.60
2017-09-26T06:50:13.873Z,75.60
2017-09-26T06:52:40.555Z,75.60
2017-09-26T06:55:07.194Z,75.50
2017-09-26T06:57:33.862Z,75.60
2017-09-26T07:00:00.511Z,75.70
2017-09-26T07:02:27.189Z,75.70
2017-09-26T07:04:53.834Z,75.60
2017-09-26T07:07:20.874Z,75.60
2017-09-26T07:09:47.928Z,75.60
2017-09-26T07:12:14.565Z,75.50
2017-09-26T07:14:41.233Z,75.60
2017-09-26T07:17:14.245Z,75.40
2017-09-26T07:19:40.928Z,75.30
2017-09-26T07:22:07.566Z,75.50
2017-09-26T07:24:34.230Z,75.60
2017-09-26T07:27:01.267Z,75.60
2017-09-26T07:29:27.901Z,75.60
2017-09-26T07:31:54.566Z,75.60
2017-09-26T07:34:21.212Z,75.50
2017-09-26T07:36:47.885Z,75.50
2017-09-26T07:39:15.289Z,75.50
2017-09-26T07:41:42.364Z,75.60
2017-09-26T07:44:08.998Z,75.60
2017-09-26T07:46:35.662Z,75.60
2017-09-26T07:49:03.491Z,75.70
2017-09-26T07:51:30.190Z,75.60
2017-09-26T07:53:56.829Z,75.50
2017-09-26T07:56:23.470Z,75.50
2017-09-26T07:58:50.135Z,75.30
2017-09-26T08:01:16.882Z,75.50
2017-09-26T08:03:43.641Z,75.50
2017-09-26T08:06:10.360Z,75.50
2017-09-26T08:08:37.109Z,75.60
2017-09-26T08:11:03.752Z,75.60
2017-09-26T08:13:30.438Z,75.60
2017-09-26T08:15:57.095Z,75.50
2017-09-26T08:18:23.734Z,75.50
2017-09-26T08:20:50.409Z,75.60
2017-09-26T08:23:17.046Z,75.60
2017-09-26T08:25:43.862Z,75.50
2017-09-26T08:28:10.501Z,75.30
2017-09-26T08:30:37.946Z,75.50
2017-09-26T08:33:04.583Z,75.30
2017-09-26T08:35:31.269Z,75.40
2017-09-26T08:37:57.913Z,75.40
2017-09-26T08:40:24.590Z,75.50
2017-09-26T08:42:51.234Z,75.50
2017-09-26T08:45:18.662Z,75.40
2017-09-26T08:47:45.701Z,75.50
2017-09-26T08:50:12.785Z,75.50
2017-09-26T08:52:39.821Z,75.60
2017-09-26T08:55:06.855Z,75.60
2017-09-26T08:57:33.517Z,75.50
2017-09-26T09:00:00.164Z,75.50
2017-09-26T09:02:26.822Z,75.50
2017-09-26T09:04:53.454Z,75.50
2017-09-26T09:07:20.113Z,75.50
2017-09-26T09:09:46.761Z,75.60
2017-09-26T09:12:13.426Z,75.50
2017-09-26T09:14:40.082Z,75.60
2017-09-26T09:19:46.531Z,75.40
2017-09-26T09:22:13.185Z,75.50
2017-09-26T09:24:39.860Z,75.60
2017-09-26T09:27:06.514Z,75.50
2017-09-26T09:29:33.183Z,75.50
2017-09-26T09:31:59.826Z,75.50
2017-09-26T09:34:26.506Z,75.50
2017-09-26T09:36:53.159Z,75.50
2017-09-26T09:39:20.222Z,75.50
2017-09-26T09:41:46.867Z,75.60
2017-09-26T09:44:14.218Z,75.50
2017-09-26T09:49:29.999Z,75.40
2017-09-26T09:51:56.638Z,75.50
2017-09-26T09:54:23.277Z,75.50
2017-09-26T09:56:49.946Z,75.50
2017-09-26T09:59:16.587Z,75.50
2017-09-26T10:01:43.650Z,75.50
2017-09-26T10:04:11.442Z,75.50
2017-09-26T10:06:38.109Z,75.50
2017-09-26T10:09:04.753Z,75.50
2017-09-26T10:11:31.441Z,75.50
2017-09-26T10:13:58.480Z,75.40
2017-09-26T10:16:25.120Z,75.50
2017-09-26T10:18:51.801Z,75.40
2017-09-26T10:21:19.201Z,75.50
2017-09-26T10:23:46.620Z,75.40
2017-09-26T10:26:13.258Z,75.50
2017-09-26T10:28:39.917Z,75.50
2017-09-26T10:31:06.558Z,75.50
2017-09-26T10:33:33.230Z,75.50
2017-09-26T10:35:59.869Z,75.50
2017-09-26T10:38:26.535Z,75.50
2017-09-26T10:40:53.183Z,75.50
2017-09-26T10:43:19.866Z,75.50
2017-09-26T10:45:46.513Z,75.50
2017-09-26T10:48:13.166Z,75.40
2017-09-26T10:50:40.221Z,75.40
2017-09-26T10:53:06.867Z,75.50
2017-09-26T10:55:33.539Z,75.50
2017-09-26T10:58:00.190Z,75.60
2017-09-26T11:00:28.999Z,75.60
2017-09-26T11:02:55.661Z,75.60
2017-09-26T11:05:22.728Z,75.60
2017-09-26T11:07:49.367Z,75.60
2017-09-26T11:10:16.050Z,75.60
2017-09-26T11:12:42.694Z,75.60
2017-09-26T11:15:09.346Z,75.70
2017-09-26T11:17:36.025Z,75.70
2017-09-26T11:20:02.678Z,75.70
2017-09-26T11:22:29.347Z,75.70
2017-09-26T11:24:55.996Z,75.70
2017-09-26T11:27:22.683Z,75.80
2017-09-26T11:29:49.335Z,75.80
2017-09-26T11:32:16.050Z,75.80
2017-09-26T11:34:42.689Z,75.80
2017-09-26T11:37:09.327Z,75.80
2017-09-26T11:39:35.989Z,75.80
2017-09-26T11:42:02.649Z,75.90
2017-09-26T11:44:29.316Z,75.90
2017-09-26T11:49:44.788Z,75.80
2017-09-26T11:52:11.831Z,75.90
2017-09-26T11:54:38.494Z,76.00
2017-09-26T11:57:05.134Z,76.00
2017-09-26T11:59:32.744Z,76.10
2017-09-26T12:01:59.425Z,76.10
2017-09-26T12:04:26.113Z,76.00
2017-09-26T12:06:52.749Z,76.00
2017-09-26T12:09:19.389Z,76.10
2017-09-26T12:11:46.178Z,76.20
2017-09-26T12:14:12.817Z,76.20
2017-09-26T12:19:28.350Z,76.00
2017-09-26T12:21:55.009Z,76.20
2017-09-26T12:24:21.643Z,76.10
2017-09-26T12:26:48.326Z,76.20
2017-09-26T12:29:14.991Z,76.30
2017-09-26T12:31:41.681Z,76.40
2017-09-26T12:34:08.332Z,76.30
2017-09-26T12:36:35.373Z,76.30
2017-09-26T12:39:02.047Z,76.30
2017-09-26T12:41:28.690Z,76.30
2017-09-26T12:43:56.175Z,76.30
2017-09-26T12:49:13.199Z,76.30
2017-09-26T12:51:39.872Z,76.30
2017-09-26T12:54:06.566Z,76.40
2017-09-26T12:56:33.215Z,76.40
2017-09-26T12:58:59.893Z,76.50
2017-09-26T13:01:26.555Z,76.40
2017-09-26T13:03:53.232Z,76.50
2017-09-26T13:06:19.916Z,76.50
2017-09-26T13:08:46.963Z,76.50
2017-09-26T13:11:13.644Z,76.50
2017-09-26T13:13:40.691Z,76.60
2017-09-26T13:16:07.384Z,76.50
2017-09-26T13:18:34.051Z,76.50
2017-09-26T13:21:00.769Z,76.50
2017-09-26T13:23:27.426Z,76.60
2017-09-26T13:25:54.085Z,76.60
2017-09-26T13:28:20.769Z,76.60
2017-09-26T13:30:47.423Z,76.60
2017-09-26T13:33:14.107Z,76.60
2017-09-26T13:35:40.775Z,76.70
2017-09-26T13:38:07.483Z,76.60
2017-09-26T13:40:34.146Z,76.70
2017-09-26T13:43:00.851Z,76.70
2017-09-26T13:45:27.508Z,76.70
2017-09-26T13:47:54.167Z,76.50
2017-09-26T13:50:20.852Z,76.60
2017-09-26T13:52:47.565Z,76.70
2017-09-26T13:55:14.291Z,76.80
2017-09-26T13:57:41.012Z,76.80
2017-09-26T14:00:08.099Z,76.80
2017-09-26T14:02:34.758Z,76.80
2017-09-26T14:05:01.439Z,76.70
2017-09-26T14:07:28.119Z,76.80
2017-09-26T14:09:54.773Z,76.90
2017-09-26T14:12:21.464Z,76.80
2017-09-26T14:14:48.124Z,76.90
2017-09-26T14:17:14.827Z,76.90
2017-09-26T14:19:41.492Z,76.90
2017-09-26T14:22:08.229Z,76.80
2017-09-26T14:24:34.888Z,76.80
2017-09-26T14:27:01.961Z,76.80
2017-09-26T14:29:28.644Z,76.80
2017-09-26T14:31:55.337Z,76.80
2017-09-26T14:34:22.074Z,76.80
2017-09-26T14:36:48.907Z,76.80
2017-09-26T14:39:15.984Z,76.80
2017-09-26T14:41:42.644Z,76.80
2017-09-26T14:44:09.405Z,76.80
2017-09-26T14:46:36.472Z,76.80
2017-09-26T14:49:03.144Z,76.80
2017-09-26T14:51:29.823Z,76.80
2017-09-26T14:53:56.500Z,76.80
2017-09-26T14:56:23.576Z,76.70
2017-09-26T14:58:50.236Z,76.80
2017-09-26T15:01:16.932Z,76.70
2017-09-26T15:03:43.600Z,76.80
2017-09-26T15:06:10.289Z,76.70
2017-09-26T15:08:36.967Z,76.70
2017-09-26T15:11:03.675Z,76.70
2017-09-26T15:13:30.336Z,76.70
2017-09-26T15:15:57.391Z,76.70
2017-09-26T15:18:24.086Z,76.60
2017-09-26T15:20:51.135Z,76.60
2017-09-26T15:23:17.811Z,76.70
2017-09-26T15:25:44.875Z,76.70
2017-09-26T15:28:12.328Z,76.70
2017-09-26T15:30:39.748Z,76.60
2017-09-26T15:33:06.441Z,76.60
2017-09-26T15:35:33.499Z,76.60
2017-09-26T15:38:00.206Z,76.60
2017-09-26T15:40:27.263Z,76.60
2017-09-26T15:42:54.323Z,76.60
2017-09-26T15:45:21.410Z,76.60
2017-09-26T15:47:48.085Z,76.40
2017-09-26T15:50:14.774Z,76.50
2017-09-26T15:52:41.424Z,76.60
2017-09-26T15:55:08.121Z,76.60
2017-09-26T15:57:34.779Z,76.50
2017-09-26T16:00:01.492Z,76.60
2017-09-26T16:02:28.196Z,76.60
2017-09-26T16:04:54.856Z,76.50
2017-09-26T16:07:21.539Z,76.50
2017-09-26T16:09:48.593Z,76.60
2017-09-26T16:12:16.119Z,76.60
2017-09-26T16:14:42.790Z,76.50
2017-09-26T16:19:55.006Z,76.40
2017-09-26T16:22:22.104Z,76.50
2017-09-26T16:24:48.760Z,76.50
2017-09-26T16:27:15.436Z,76.50
2017-09-26T16:29:42.528Z,76.50
2017-09-26T16:32:09.192Z,76.50
2017-09-26T16:34:36.301Z,76.50
2017-09-26T16:37:02.963Z,76.50
2017-09-26T16:39:30.044Z,76.50
2017-09-26T16:41:56.747Z,76.50
2017-09-26T16:44:23.449Z,76.50
2017-09-26T16:49:41.351Z,76.40
2017-09-26T16:52:08.251Z,76.40
2017-09-26T16:54:34.930Z,76.50
2017-09-26T16:57:01.629Z,76.50
2017-09-26T16:59:28.288Z,76.50
2017-09-26T17:01:55.800Z,76.50
2017-09-26T17:04:26.298Z,76.50
2017-09-26T17:06:53.757Z,76.50
2017-09-26T17:09:20.415Z,76.50
2017-09-26T17:11:47.108Z,76.50
2017-09-26T17:14:14.160Z,76.40
2017-09-26T17:19:30.732Z,76.40
2017-09-26T17:21:57.400Z,76.40
2017-09-26T17:24:24.123Z,76.40
2017-09-26T17:26:50.784Z,76.40
2017-09-26T17:29:18.484Z,76.40
2017-09-26T17:31:45.556Z,76.40
2017-09-26T17:34:12.264Z,76.40
2017-09-26T17:36:38.923Z,76.40
2017-09-26T17:39:05.577Z,76.40
2017-09-26T17:41:32.260Z,76.40
2017-09-26T17:43:58.924Z,76.40
2017-09-26T17:46:26.380Z,76.40
2017-09-26T17:48:53.053Z,76.40
2017-09-26T17:51:19.731Z,76.40
2017-09-26T17:53:46.387Z,76.40
2017-09-26T17:56:13.076Z,76.40
2017-09-26T17:58:39.750Z,76.40
2017-09-26T18:01:06.464Z,76.50
2017-09-26T18:03:33.513Z,76.40
2017-09-26T18:06:00.178Z,76.40
2017-09-26T18:08:26.865Z,76.40
2017-09-26T18:10:53.551Z,76.40
2017-09-26T18:13:20.249Z,76.50
2017-09-26T18:15:47.310Z,76.40
2017-09-26T18:18:13.996Z,76.30
2017-09-26T18:20:40.656Z,76.30
2017-09-26T18:23:07.377Z,76.30
2017-09-26T18:25:34.040Z,76.40
2017-09-26T18:28:00.701Z,76.50
2017-09-26T18:30:27.800Z,76.30
2017-09-26T18:32:54.455Z,76.40
2017-09-26T18:35:21.141Z,76.30
2017-09-26T18:37:48.197Z,76.40
2017-09-26T18:40:14.880Z,76.40
2017-09-26T18:42:41.931Z,76.40
2017-09-26T18:45:09.049Z,76.40
2017-09-26T18:47:36.511Z,76.10
2017-09-26T18:50:03.171Z,76.20
2017-09-26T18:52:29.860Z,76.30
2017-09-26T18:54:56.916Z,76.40
2017-09-26T18:57:23.991Z,76.40
2017-09-26T18:59:50.643Z,76.40
2017-09-26T19:02:17.340Z,76.40
2017-09-26T19:07:12.775Z,76.30
2017-09-26T19:09:39.461Z,76.30
2017-09-26T19:12:06.110Z,76.30
2017-09-26T19:14:32.788Z,76.40
2017-09-26T19:16:59.443Z,76.30
2017-09-26T19:19:26.524Z,76.30
2017-09-26T19:21:53.223Z,76.30
2017-09-26T19:24:19.920Z,76.30
2017-09-26T19:26:46.576Z,76.30
2017-09-26T19:29:13.247Z,76.30
2017-09-26T19:31:39.927Z,76.30
2017-09-26T19:34:06.592Z,76.30
2017-09-26T19:36:33.276Z,76.30
2017-09-26T19:38:59.979Z,76.30
2017-09-26T19:41:26.675Z,76.20
2017-09-26T19:43:53.335Z,76.20
2017-09-26T19:46:20.029Z,76.20
2017-09-26T19:48:46.688Z,76.00
2017-09-26T19:51:13.794Z,76.20
2017-09-26T19:53:40.464Z,76.20
2017-09-26T19:56:07.120Z,76.20
2017-09-26T19:58:34.200Z,76.20
2017-09-26T20:01:00.866Z,76.20
2017-09-26T20:03:27.952Z,76.20
2017-09-26T20:05:55.009Z,76.10
2017-09-26T20:08:21.695Z,76.10
2017-09-26T20:10:48.368Z,76.10
2017-09-26T20:13:15.061Z,76.20
2017-09-26T20:15:41.729Z,76.10
2017-09-26T20:18:08.437Z,75.80
2017-09-26T20:20:35.109Z,76.00
2017-09-26T20:23:03.589Z,76.10
2017-09-26T20:25:30.282Z,76.10
2017-09-26T20:27:56.944Z,76.10
2017-09-26T20:30:23.644Z,76.10
2017-09-26T20:32:50.304Z,76.10
2017-09-26T20:35:16.996Z,76.00
2017-09-26T20:37:43.664Z,76.10
2017-09-26T20:40:10.352Z,76.10
2017-09-26T20:42:37.043Z,76.10
2017-09-26T20:45:03.740Z,76.10
2017-09-26T20:47:34.221Z,75.80
2017-09-26T20:50:01.278Z,76.00
2017-09-26T20:52:28.360Z,76.00
2017-09-26T20:54:55.016Z,76.10
2017-09-26T20:57:21.708Z,76.00
2017-09-26T20:59:48.364Z,76.00
2017-09-26T21:02:15.051Z,76.00
2017-09-26T21:04:42.104Z,76.00
2017-09-26T21:07:08.797Z,76.00
2017-09-26T21:09:35.461Z,76.00
2017-09-26T21:12:02.121Z,76.10
2017-09-26T21:14:28.808Z,76.00
2017-09-26T21:19:46.136Z,75.90
2017-09-26T21:22:12.797Z,76.00
2017-09-26T21:24:39.489Z,76.00
2017-09-26T21:27:06.147Z,76.00
2017-09-26T21:29:32.840Z,76.00
2017-09-26T21:31:59.888Z,76.00
2017-09-26T21:34:26.587Z,76.00
2017-09-26T21:36:53.652Z,76.00
2017-09-26T21:39:20.700Z,76.00
2017-09-26T21:41:47.389Z,76.00
2017-09-26T21:44:14.071Z,76.00
2017-09-26T21:49:30.087Z,75.90
2017-09-26T21:51:56.776Z,75.90
2017-09-26T21:54:23.434Z,76.00
2017-09-26T21:56:50.120Z,75.90
2017-09-26T21:59:16.789Z,75.90
2017-09-26T22:01:43.505Z,75.90
2017-09-26T22:04:10.552Z,75.90
2017-09-26T22:06:37.209Z,75.90
2017-09-26T22:09:03.895Z,75.90
2017-09-26T22:11:30.561Z,75.90
2017-09-26T22:13:57.244Z,75.90
2017-09-26T22:16:23.908Z,75.90
2017-09-26T22:18:50.607Z,75.80
2017-09-26T22:21:17.682Z,75.90
2017-09-26T22:23:44.380Z,75.90
2017-09-26T22:26:11.055Z,75.90
2017-09-26T22:28:37.781Z,75.90
2017-09-26T22:31:04.435Z,75.90
2017-09-26T22:33:31.091Z,75.90
2017-09-26T22:35:57.780Z,75.90
2017-09-26T22:38:24.459Z,75.90
2017-09-26T22:40:51.156Z,75.80
2017-09-26T22:43:17.815Z,75.80
2017-09-26T22:45:44.504Z,75.90
2017-09-26T22:48:11.181Z,75.70
2017-09-26T22:50:37.873Z,75.80
2017-09-26T22:53:04.535Z,75.80
2017-09-26T22:55:31.216Z,75.80
2017-09-26T22:57:57.874Z,75.80
2017-09-26T23:00:24.524Z,75.80
2017-09-26T23:02:51.204Z,75.80
2017-09-26T23:05:17.871Z,75.80
2017-09-26T23:07:44.554Z,75.80
2017-09-26T23:10:11.213Z,75.80
2017-09-26T23:12:37.895Z,75.80
2017-09-26T23:15:04.545Z,75.80
2017-09-26T23:17:31.640Z,75.80
2017-09-26T23:19:58.723Z,75.80
2017-09-26T23:22:25.784Z,75.80
2017-09-26T23:24:52.465Z,75.70
2017-09-26T23:27:19.132Z,75.80
2017-09-26T23:29:45.817Z,75.70
2017-09-26T23:32:12.473Z,75.80
2017-09-26T23:34:39.557Z,75.70
2017-09-26T23:37:06.211Z,75.70
2017-09-26T23:39:33.312Z,75.70
2017-09-26T23:41:59.968Z,75.80
2017-09-26T23:44:27.019Z,75.70
2017-09-26T23:46:53.712Z,75.70
2017-09-26T23:49:20.360Z,75.70
2017-09-26T23:51:47.043Z,75.70
2017-09-26T23:54:13.694Z,75.70
2017-09-26T23:56:40.348Z,75.60
2017-09-26T23:59:07.032Z,75.70
